Planes, Francia

2:50 AM CET en Enero 23, 2019 (GMT +0100)
Pyrénées catalanes nord | | Change Station

Alt 4760 ft 42.45 °N, 2.06 °E | Updated 11 seconds ago

Muy nublado
Muy nublado
26.6 ° F
Sensación térmica 21 ° F
N
4.5
Viento Variable Viento desde SSO
Gusts 7.4 mph

Hoy
Alta -- | Baja -- ° F
--% Posibilidad de precipitaciones
Ayer
Alta -- | Baja -- ° F
Precip. -- pul
Presión 29.59 pul
Visibilidad 6.2 Millas
Nubes Nubes dispersas 6800 ft
Muy nublado 16000 ft
Muy nublado 18000 ft
Vientos helados 21 ° F
Punto de rocío 16 ° F
Humedad 63%
Precipitaciones 0.00 pul
Espesor de la nieve No disponible.
8:13 AM 5:53 PM
Gibosa menguante, 95% visible
METAR LFMP 230130Z AUTO 30004KT 9999 SCT068 BKN160 BKN180 08/M01 Q1002
Presión 29.59 pul
Visibilidad 6.2 Millas
Nubes Nubes dispersas 6800 ft
Muy nublado 16000 ft
Muy nublado 18000 ft
Vientos helados 21 ° F
Punto de rocío 16 ° F
Humedad 63%
Precipitaciones 0.00 pul
Espesor de la nieve No disponible.
8:13 AM 5:53 PM
Gibosa menguante, 95% visible
METAR LFMP 230130Z AUTO 30004KT 9999 SCT068 BKN160 BKN180 08/M01 Q1002

Get Severe Weather Alerts

Thanks for signing up!

Be on the lookout for a verification email in your inbox.

You'll start receiving the daily forecast at 6 AM.

×

10-Day Weather Forecast

Heavy Snow conditions possible.
×

Almanac

Astronomía

Jan. 23, 2019 Salida Puesta
Hora real
Crepúsculo civil
Crepúsculo náutico
Crepúsculo astronómico
Luna
Horas de luz
Horas de luz
Tomorrow will be .
, % of the Moon is Illuminated

Extremos de hoy

Máximos del país Bajas del país

Community

WunderPhotos

Category 6

Welcome to Category 6. This is the collective home for Weather Underground's featured writeups by Dr. Jeff Masters (right), Bob Henson (left), Chris Burt, and other regular contributors.

Nearby

Calidad del aire

  Calidad del aire Índice AQ Contaminante
Not available.

Grosos de nieve

Estación Profundido Altura

Actividad de terremotos

Ciudad Distance Mag. Tiempo y dato
Magnitud mínima muestra es 2,5.

Temperaturas de aguas costeras

Lugar Temperatura

Stations

Estaciones meteorológicas cercanas

Ubicación de la estación Temp. Vientos helados Punto de rocío Humedad Viento Precip. Alt Actualizado Tipo